sensor_id;sensor_type;location;lat;lon;timestamp;P1;durP1;ratioP1;P2;durP2;ratioP2
19891;SDS011;10108;50.142;8.724;2024-03-25T00:00:32;8.32;;;2.85;;
19891;SDS011;10108;50.142;8.724;2024-03-25T00:02:59;8.93;;;3.13;;
19891;SDS011;10108;50.142;8.724;2024-03-25T00:05:26;9.35;;;3.15;;
19891;SDS011;10108;50.142;8.724;2024-03-25T00:07:53;9.57;;;2.92;;
19891;SDS011;10108;50.142;8.724;2024-03-25T00:10:20;7.00;;;2.90;;
19891;SDS011;10108;50.142;8.724;2024-03-25T00:12:46;15.18;;;3.40;;
19891;SDS011;10108;50.142;8.724;2024-03-25T00:15:18;11.45;;;3.63;;
19891;SDS011;10108;50.142;8.724;2024-03-25T00:17:46;9.93;;;3.35;;
19891;SDS011;10108;50.142;8.724;2024-03-25T00:20:13;7.60;;;2.72;;
19891;SDS011;10108;50.142;8.724;2024-03-25T00:22:41;9.68;;;3.05;;
19891;SDS011;10108;50.142;8.724;2024-03-25T00:25:07;12.10;;;3.30;;
19891;SDS011;10108;50.142;8.724;2024-03-25T00:27:34;7.55;;;3.00;;
19891;SDS011;10108;50.142;8.724;2024-03-25T00:30:01;6.25;;;2.75;;
19891;SDS011;10108;50.142;8.724;2024-03-25T00:32:27;10.82;;;3.40;;
19891;SDS011;10108;50.142;8.724;2024-03-25T00:34:53;11.77;;;3.70;;
19891;SDS011;10108;50.142;8.724;2024-03-25T00:37:20;9.52;;;3.25;;
19891;SDS011;10108;50.142;8.724;2024-03-25T00:39:48;10.70;;;2.90;;
19891;SDS011;10108;50.142;8.724;2024-03-25T00:42:15;10.05;;;2.90;;
19891;SDS011;10108;50.142;8.724;2024-03-25T00:44:41;10.77;;;2.97;;
19891;SDS011;10108;50.142;8.724;2024-03-25T00:47:07;11.23;;;3.17;;
19891;SDS011;10108;50.142;8.724;2024-03-25T00:49:33;9.88;;;3.20;;
19891;SDS011;10108;50.142;8.724;2024-03-25T00:52:00;10.75;;;3.15;;
19891;SDS011;10108;50.142;8.724;2024-03-25T00:54:26;9.27;;;3.20;;
19891;SDS011;10108;50.142;8.724;2024-03-25T00:56:53;10.70;;;3.63;;
19891;SDS011;10108;50.142;8.724;2024-03-25T00:59:19;9.45;;;3.00;;
19891;SDS011;10108;50.142;8.724;2024-03-25T01:01:45;8.93;;;3.00;;
19891;SDS011;10108;50.142;8.724;2024-03-25T01:04:12;11.90;;;3.33;;
19891;SDS011;10108;50.142;8.724;2024-03-25T01:06:38;8.18;;;3.08;;
19891;SDS011;10108;50.142;8.724;2024-03-25T01:09:05;10.13;;;3.30;;
19891;SDS011;10108;50.142;8.724;2024-03-25T01:11:33;10.70;;;3.15;;
19891;SDS011;10108;50.142;8.724;2024-03-25T01:13:59;10.68;;;3.97;;
19891;SDS011;10108;50.142;8.724;2024-03-25T01:16:26;7.35;;;3.22;;
19891;SDS011;10108;50.142;8.724;2024-03-25T01:18:53;9.98;;;3.53;;
19891;SDS011;10108;50.142;8.724;2024-03-25T01:21:19;9.27;;;4.03;;
19891;SDS011;10108;50.142;8.724;2024-03-25T01:23:45;11.85;;;3.60;;
19891;SDS011;10108;50.142;8.724;2024-03-25T01:26:11;10.25;;;3.30;;
19891;SDS011;10108;50.142;8.724;2024-03-25T01:28:38;12.13;;;3.58;;
19891;SDS011;10108;50.142;8.724;2024-03-25T01:31:04;10.50;;;3.42;;
19891;SDS011;10108;50.142;8.724;2024-03-25T01:33:30;7.57;;;3.20;;
19891;SDS011;10108;50.142;8.724;2024-03-25T01:35:57;7.63;;;3.30;;
19891;SDS011;10108;50.142;8.724;2024-03-25T01:38:23;11.60;;;3.50;;
19891;SDS011;10108;50.142;8.724;2024-03-25T01:40:49;9.73;;;3.45;;
19891;SDS011;10108;50.142;8.724;2024-03-25T01:43:15;12.02;;;3.33;;
19891;SDS011;10108;50.142;8.724;2024-03-25T01:45:44;12.00;;;3.47;;
19891;SDS011;10108;50.142;8.724;2024-03-25T01:48:10;6.38;;;2.97;;
19891;SDS011;10108;50.142;8.724;2024-03-25T01:50:41;10.73;;;3.50;;
19891;SDS011;10108;50.142;8.724;2024-03-25T01:53:09;10.02;;;3.40;;
19891;SDS011;10108;50.142;8.724;2024-03-25T01:55:38;11.57;;;3.30;;
19891;SDS011;10108;50.142;8.724;2024-03-25T01:58:10;10.30;;;3.50;;
19891;SDS011;10108;50.142;8.724;2024-03-25T02:00:39;7.38;;;2.92;;
19891;SDS011;10108;50.142;8.724;2024-03-25T02:03:06;9.82;;;3.42;;
19891;SDS011;10108;50.142;8.724;2024-03-25T02:05:33;10.93;;;3.25;;
19891;SDS011;10108;50.142;8.724;2024-03-25T02:08:00;15.93;;;3.55;;
19891;SDS011;10108;50.142;8.724;2024-03-25T02:10:29;9.43;;;3.35;;
19891;SDS011;10108;50.142;8.724;2024-03-25T02:12:55;14.73;;;3.80;;
19891;SDS011;10108;50.142;8.724;2024-03-25T02:15:22;12.68;;;3.53;;
19891;SDS011;10108;50.142;8.724;2024-03-25T02:17:48;15.07;;;3.35;;
19891;SDS011;10108;50.142;8.724;2024-03-25T02:20:14;10.50;;;3.45;;
19891;SDS011;10108;50.142;8.724;2024-03-25T02:22:41;12.80;;;3.20;;
19891;SDS011;10108;50.142;8.724;2024-03-25T02:25:08;10.43;;;3.47;;
19891;SDS011;10108;50.142;8.724;2024-03-25T02:27:39;11.68;;;3.45;;
19891;SDS011;10108;50.142;8.724;2024-03-25T02:30:05;8.48;;;3.50;;
19891;SDS011;10108;50.142;8.724;2024-03-25T02:32:34;9.57;;;3.22;;
19891;SDS011;10108;50.142;8.724;2024-03-25T02:35:02;9.63;;;3.30;;
19891;SDS011;10108;50.142;8.724;2024-03-25T02:37:29;11.73;;;3.25;;
19891;SDS011;10108;50.142;8.724;2024-03-25T02:39:57;9.40;;;3.35;;
19891;SDS011;10108;50.142;8.724;2024-03-25T02:42:25;6.65;;;3.28;;
19891;SDS011;10108;50.142;8.724;2024-03-25T02:44:54;9.55;;;3.22;;
19891;SDS011;10108;50.142;8.724;2024-03-25T02:47:24;12.00;;;3.78;;
19891;SDS011;10108;50.142;8.724;2024-03-25T02:49:51;12.85;;;3.90;;
19891;SDS011;10108;50.142;8.724;2024-03-25T02:52:20;10.75;;;3.38;;
19891;SDS011;10108;50.142;8.724;2024-03-25T02:54:47;9.25;;;3.55;;
19891;SDS011;10108;50.142;8.724;2024-03-25T02:57:13;12.63;;;3.40;;
19891;SDS011;10108;50.142;8.724;2024-03-25T02:59:39;7.60;;;3.33;;
19891;SDS011;10108;50.142;8.724;2024-03-25T03:02:05;9.65;;;3.45;;
19891;SDS011;10108;50.142;8.724;2024-03-25T03:04:32;9.00;;;3.33;;
19891;SDS011;10108;50.142;8.724;2024-03-25T03:06:58;16.00;;;3.47;;
19891;SDS011;10108;50.142;8.724;2024-03-25T03:09:24;12.38;;;3.55;;
19891;SDS011;10108;50.142;8.724;2024-03-25T03:11:51;11.35;;;3.25;;
19891;SDS011;10108;50.142;8.724;2024-03-25T03:14:17;11.73;;;3.45;;
19891;SDS011;10108;50.142;8.724;2024-03-25T03:16:43;12.18;;;3.47;;
19891;SDS011;10108;50.142;8.724;2024-03-25T03:19:09;9.98;;;3.20;;
19891;SDS011;10108;50.142;8.724;2024-03-25T03:21:36;8.50;;;3.38;;
19891;SDS011;10108;50.142;8.724;2024-03-25T03:24:03;11.30;;;3.42;;
19891;SDS011;10108;50.142;8.724;2024-03-25T03:26:29;10.27;;;3.33;;
19891;SDS011;10108;50.142;8.724;2024-03-25T03:28:56;12.38;;;3.42;;
19891;SDS011;10108;50.142;8.724;2024-03-25T03:31:23;12.13;;;3.40;;
19891;SDS011;10108;50.142;8.724;2024-03-25T03:33:50;13.43;;;3.63;;
19891;SDS011;10108;50.142;8.724;2024-03-25T03:36:21;9.07;;;3.85;;
19891;SDS011;10108;50.142;8.724;2024-03-25T03:38:50;10.07;;;3.28;;
19891;SDS011;10108;50.142;8.724;2024-03-25T03:41:17;14.68;;;3.65;;
19891;SDS011;10108;50.142;8.724;2024-03-25T03:43:43;12.52;;;3.42;;
19891;SDS011;10108;50.142;8.724;2024-03-25T03:46:09;8.95;;;3.28;;
19891;SDS011;10108;50.142;8.724;2024-03-25T03:48:36;12.05;;;3.58;;
19891;SDS011;10108;50.142;8.724;2024-03-25T03:51:07;11.27;;;2.95;;
19891;SDS011;10108;50.142;8.724;2024-03-25T03:53:34;12.13;;;3.38;;
19891;SDS011;10108;50.142;8.724;2024-03-25T03:56:01;9.18;;;3.65;;
19891;SDS011;10108;50.142;8.724;2024-03-25T03:58:31;9.82;;;3.78;;
19891;SDS011;10108;50.142;8.724;2024-03-25T04:00:58;10.15;;;3.78;;
19891;SDS011;10108;50.142;8.724;2024-03-25T04:03:24;6.63;;;3.30;;
19891;SDS011;10108;50.142;8.724;2024-03-25T04:05:51;13.48;;;3.92;;
19891;SDS011;10108;50.142;8.724;2024-03-25T04:08:17;6.90;;;3.67;;
19891;SDS011;10108;50.142;8.724;2024-03-25T04:10:44;10.02;;;3.83;;
19891;SDS011;10108;50.142;8.724;2024-03-25T04:13:11;11.27;;;3.67;;
19891;SDS011;10108;50.142;8.724;2024-03-25T04:15:39;11.48;;;3.20;;
19891;SDS011;10108;50.142;8.724;2024-03-25T04:18:06;11.68;;;4.20;;
19891;SDS011;10108;50.142;8.724;2024-03-25T04:20:36;9.90;;;3.33;;
19891;SDS011;10108;50.142;8.724;2024-03-25T04:23:06;9.38;;;3.55;;
19891;SDS011;10108;50.142;8.724;2024-03-25T04:25:33;10.65;;;3.55;;
19891;SDS011;10108;50.142;8.724;2024-03-25T04:28:00;9.00;;;3.33;;
19891;SDS011;10108;50.142;8.724;2024-03-25T04:30:26;9.40;;;3.53;;
19891;SDS011;10108;50.142;8.724;2024-03-25T04:32:53;13.65;;;4.00;;
19891;SDS011;10108;50.142;8.724;2024-03-25T04:35:19;13.48;;;3.53;;
19891;SDS011;10108;50.142;8.724;2024-03-25T04:37:45;11.05;;;3.60;;
19891;SDS011;10108;50.142;8.724;2024-03-25T04:40:12;13.35;;;3.55;;
19891;SDS011;10108;50.142;8.724;2024-03-25T04:42:44;13.63;;;3.78;;
19891;SDS011;10108;50.142;8.724;2024-03-25T04:45:11;13.75;;;3.70;;
19891;SDS011;10108;50.142;8.724;2024-03-25T04:47:40;12.68;;;3.45;;
19891;SDS011;10108;50.142;8.724;2024-03-25T04:50:06;13.88;;;3.75;;
19891;SDS011;10108;50.142;8.724;2024-03-25T04:52:33;13.98;;;4.10;;
19891;SDS011;10108;50.142;8.724;2024-03-25T04:55:00;12.88;;;3.78;;
19891;SDS011;10108;50.142;8.724;2024-03-25T04:57:26;11.95;;;3.70;;
19891;SDS011;10108;50.142;8.724;2024-03-25T04:59:52;11.20;;;3.80;;
19891;SDS011;10108;50.142;8.724;2024-03-25T05:02:18;11.63;;;4.00;;
19891;SDS011;10108;50.142;8.724;2024-03-25T05:04:45;9.07;;;3.50;;
19891;SDS011;10108;50.142;8.724;2024-03-25T05:07:11;10.38;;;3.50;;
19891;SDS011;10108;50.142;8.724;2024-03-25T05:09:37;9.52;;;3.60;;
19891;SDS011;10108;50.142;8.724;2024-03-25T05:12:03;8.10;;;3.47;;
19891;SDS011;10108;50.142;8.724;2024-03-25T05:14:30;13.50;;;3.90;;
19891;SDS011;10108;50.142;8.724;2024-03-25T05:16:56;12.93;;;4.07;;
19891;SDS011;10108;50.142;8.724;2024-03-25T05:19:25;15.05;;;4.60;;
19891;SDS011;10108;50.142;8.724;2024-03-25T05:21:51;13.13;;;3.92;;
19891;SDS011;10108;50.142;8.724;2024-03-25T05:24:18;12.10;;;3.58;;
19891;SDS011;10108;50.142;8.724;2024-03-25T05:26:44;14.07;;;3.85;;
19891;SDS011;10108;50.142;8.724;2024-03-25T05:29:10;13.73;;;4.35;;
19891;SDS011;10108;50.142;8.724;2024-03-25T05:31:36;13.60;;;3.90;;
19891;SDS011;10108;50.142;8.724;2024-03-25T05:34:04;11.75;;;3.88;;
19891;SDS011;10108;50.142;8.724;2024-03-25T05:36:34;13.55;;;4.18;;
19891;SDS011;10108;50.142;8.724;2024-03-25T05:39:00;11.90;;;4.57;;
19891;SDS011;10108;50.142;8.724;2024-03-25T05:41:26;10.63;;;4.05;;
19891;SDS011;10108;50.142;8.724;2024-03-25T05:43:53;9.75;;;4.25;;
19891;SDS011;10108;50.142;8.724;2024-03-25T05:46:19;12.60;;;3.88;;
19891;SDS011;10108;50.142;8.724;2024-03-25T05:48:45;12.32;;;3.90;;
19891;SDS011;10108;50.142;8.724;2024-03-25T05:51:12;19.40;;;4.50;;
19891;SDS011;10108;50.142;8.724;2024-03-25T05:53:38;13.45;;;4.25;;
19891;SDS011;10108;50.142;8.724;2024-03-25T05:56:04;12.18;;;4.15;;
19891;SDS011;10108;50.142;8.724;2024-03-25T05:58:31;10.73;;;4.00;;
19891;SDS011;10108;50.142;8.724;2024-03-25T06:00:57;15.90;;;4.18;;
19891;SDS011;10108;50.142;8.724;2024-03-25T06:03:23;12.85;;;4.00;;
19891;SDS011;10108;50.142;8.724;2024-03-25T06:05:49;15.50;;;4.05;;
19891;SDS011;10108;50.142;8.724;2024-03-25T06:08:18;13.23;;;4.22;;
19891;SDS011;10108;50.142;8.724;2024-03-25T06:11:01;12.65;;;4.10;;
19891;SDS011;10108;50.142;8.724;2024-03-25T06:13:27;8.77;;;3.80;;
19891;SDS011;10108;50.142;8.724;2024-03-25T06:15:54;12.00;;;4.03;;
19891;SDS011;10108;50.142;8.724;2024-03-25T06:18:20;9.27;;;3.53;;
19891;SDS011;10108;50.142;8.724;2024-03-25T06:20:48;11.65;;;4.38;;
19891;SDS011;10108;50.142;8.724;2024-03-25T06:23:26;10.95;;;4.03;;
19891;SDS011;10108;50.142;8.724;2024-03-25T06:25:54;10.98;;;4.00;;
19891;SDS011;10108;50.142;8.724;2024-03-25T06:28:23;11.50;;;4.20;;
19891;SDS011;10108;50.142;8.724;2024-03-25T06:30:50;15.50;;;3.90;;
19891;SDS011;10108;50.142;8.724;2024-03-25T06:33:36;16.27;;;4.20;;
19891;SDS011;10108;50.142;8.724;2024-03-25T06:36:21;13.93;;;4.47;;
19891;SDS011;10108;50.142;8.724;2024-03-25T06:38:47;13.73;;;4.60;;
19891;SDS011;10108;50.142;8.724;2024-03-25T06:41:13;17.13;;;3.90;;
19891;SDS011;10108;50.142;8.724;2024-03-25T06:43:40;14.40;;;3.95;;
19891;SDS011;10108;50.142;8.724;2024-03-25T06:46:19;15.48;;;3.95;;
19891;SDS011;10108;50.142;8.724;2024-03-25T06:49:09;13.77;;;3.67;;
19891;SDS011;10108;50.142;8.724;2024-03-25T06:52:00;11.70;;;3.75;;
19891;SDS011;10108;50.142;8.724;2024-03-25T06:54:36;14.32;;;4.10;;
19891;SDS011;10108;50.142;8.724;2024-03-25T06:57:29;13.35;;;4.18;;
19891;SDS011;10108;50.142;8.724;2024-03-25T07:00:03;11.63;;;4.28;;
19891;SDS011;10108;50.142;8.724;2024-03-25T07:02:41;11.80;;;4.28;;
19891;SDS011;10108;50.142;8.724;2024-03-25T07:05:24;13.30;;;4.03;;
19891;SDS011;10108;50.142;8.724;2024-03-25T07:07:50;10.38;;;3.60;;
19891;SDS011;10108;50.142;8.724;2024-03-25T07:10:16;15.93;;;4.03;;
19891;SDS011;10108;50.142;8.724;2024-03-25T07:13:06;15.10;;;3.97;;
19891;SDS011;10108;50.142;8.724;2024-03-25T07:15:32;10.52;;;3.90;;
19891;SDS011;10108;50.142;8.724;2024-03-25T07:18:01;14.82;;;4.25;;
19891;SDS011;10108;50.142;8.724;2024-03-25T07:20:27;15.60;;;3.80;;
19891;SDS011;10108;50.142;8.724;2024-03-25T07:22:54;11.10;;;3.90;;
19891;SDS011;10108;50.142;8.724;2024-03-25T07:25:23;13.70;;;4.63;;
19891;SDS011;10108;50.142;8.724;2024-03-25T07:27:51;11.25;;;4.53;;
19891;SDS011;10108;50.142;8.724;2024-03-25T07:30:20;13.98;;;4.32;;
19891;SDS011;10108;50.142;8.724;2024-03-25T07:32:54;11.25;;;4.07;;
19891;SDS011;10108;50.142;8.724;2024-03-25T07:35:21;16.63;;;4.75;;
19891;SDS011;10108;50.142;8.724;2024-03-25T07:37:47;15.40;;;4.55;;
19891;SDS011;10108;50.142;8.724;2024-03-25T07:40:20;13.48;;;4.20;;
19891;SDS011;10108;50.142;8.724;2024-03-25T07:42:48;13.32;;;4.18;;
19891;SDS011;10108;50.142;8.724;2024-03-25T07:45:15;12.35;;;4.20;;
19891;SDS011;10108;50.142;8.724;2024-03-25T07:47:41;15.27;;;4.43;;
19891;SDS011;10108;50.142;8.724;2024-03-25T07:50:08;13.48;;;4.00;;
19891;SDS011;10108;50.142;8.724;2024-03-25T07:52:35;11.75;;;4.03;;
19891;SDS011;10108;50.142;8.724;2024-03-25T07:55:08;10.48;;;4.30;;
19891;SDS011;10108;50.142;8.724;2024-03-25T07:57:34;11.77;;;4.05;;
19891;SDS011;10108;50.142;8.724;2024-03-25T08:00:01;15.05;;;4.88;;
19891;SDS011;10108;50.142;8.724;2024-03-25T08:02:38;12.95;;;4.07;;
19891;SDS011;10108;50.142;8.724;2024-03-25T08:05:07;15.20;;;4.95;;
19891;SDS011;10108;50.142;8.724;2024-03-25T08:07:34;14.73;;;4.03;;
19891;SDS011;10108;50.142;8.724;2024-03-25T08:10:00;13.80;;;4.30;;
19891;SDS011;10108;50.142;8.724;2024-03-25T08:12:29;15.05;;;4.50;;
19891;SDS011;10108;50.142;8.724;2024-03-25T08:14:57;14.65;;;4.30;;
19891;SDS011;10108;50.142;8.724;2024-03-25T08:17:23;14.43;;;4.40;;
19891;SDS011;10108;50.142;8.724;2024-03-25T08:19:49;11.63;;;4.28;;
19891;SDS011;10108;50.142;8.724;2024-03-25T08:22:19;17.95;;;4.50;;
19891;SDS011;10108;50.142;8.724;2024-03-25T08:24:45;14.00;;;4.13;;
19891;SDS011;10108;50.142;8.724;2024-03-25T08:27:12;17.27;;;4.63;;
19891;SDS011;10108;50.142;8.724;2024-03-25T08:29:38;17.92;;;4.30;;
19891;SDS011;10108;50.142;8.724;2024-03-25T08:32:04;16.88;;;3.90;;
19891;SDS011;10108;50.142;8.724;2024-03-25T08:34:31;13.27;;;3.85;;
19891;SDS011;10108;50.142;8.724;2024-03-25T08:36:57;14.90;;;4.43;;
19891;SDS011;10108;50.142;8.724;2024-03-25T08:39:23;14.20;;;3.90;;
19891;SDS011;10108;50.142;8.724;2024-03-25T08:41:50;16.10;;;4.22;;
19891;SDS011;10108;50.142;8.724;2024-03-25T08:44:16;13.75;;;4.20;;
19891;SDS011;10108;50.142;8.724;2024-03-25T08:46:43;14.32;;;4.05;;
19891;SDS011;10108;50.142;8.724;2024-03-25T08:49:09;13.75;;;3.88;;
19891;SDS011;10108;50.142;8.724;2024-03-25T08:51:35;13.48;;;3.67;;
19891;SDS011;10108;50.142;8.724;2024-03-25T08:54:02;12.07;;;3.72;;
19891;SDS011;10108;50.142;8.724;2024-03-25T08:56:28;13.80;;;3.63;;
19891;SDS011;10108;50.142;8.724;2024-03-25T08:58:56;13.63;;;3.60;;
19891;SDS011;10108;50.142;8.724;2024-03-25T09:01:23;12.23;;;3.65;;
19891;SDS011;10108;50.142;8.724;2024-03-25T09:03:50;11.25;;;3.53;;
19891;SDS011;10108;50.142;8.724;2024-03-25T09:06:16;10.18;;;2.78;;
19891;SDS011;10108;50.142;8.724;2024-03-25T09:08:42;13.00;;;3.22;;
19891;SDS011;10108;50.142;8.724;2024-03-25T09:11:29;9.02;;;3.03;;
19891;SDS011;10108;50.142;8.724;2024-03-25T09:13:58;9.35;;;3.05;;
19891;SDS011;10108;50.142;8.724;2024-03-25T09:16:24;9.60;;;3.20;;
19891;SDS011;10108;50.142;8.724;2024-03-25T09:18:51;10.65;;;3.13;;
19891;SDS011;10108;50.142;8.724;2024-03-25T09:21:17;9.93;;;3.70;;
19891;SDS011;10108;50.142;8.724;2024-03-25T09:23:43;11.00;;;3.33;;
19891;SDS011;10108;50.142;8.724;2024-03-25T09:26:09;17.20;;;4.10;;
19891;SDS011;10108;50.142;8.724;2024-03-25T09:28:36;14.43;;;3.45;;
19891;SDS011;10108;50.142;8.724;2024-03-25T09:31:03;12.93;;;3.67;;
19891;SDS011;10108;50.142;8.724;2024-03-25T09:33:31;10.77;;;3.33;;
19891;SDS011;10108;50.142;8.724;2024-03-25T09:35:57;12.25;;;3.30;;
19891;SDS011;10108;50.142;8.724;2024-03-25T09:38:24;15.02;;;3.20;;
19891;SDS011;10108;50.142;8.724;2024-03-25T09:40:52;12.27;;;3.30;;
19891;SDS011;10108;50.142;8.724;2024-03-25T09:43:32;10.60;;;3.63;;
19891;SDS011;10108;50.142;8.724;2024-03-25T09:46:03;14.30;;;3.72;;
19891;SDS011;10108;50.142;8.724;2024-03-25T09:48:30;11.77;;;3.17;;
19891;SDS011;10108;50.142;8.724;2024-03-25T09:50:57;11.68;;;3.30;;
19891;SDS011;10108;50.142;8.724;2024-03-25T09:53:24;12.15;;;3.33;;
19891;SDS011;10108;50.142;8.724;2024-03-25T09:55:50;13.00;;;3.20;;
19891;SDS011;10108;50.142;8.724;2024-03-25T09:58:16;10.88;;;2.97;;
19891;SDS011;10108;50.142;8.724;2024-03-25T10:00:45;13.68;;;3.22;;
19891;SDS011;10108;50.142;8.724;2024-03-25T10:03:11;13.93;;;3.40;;
19891;SDS011;10108;50.142;8.724;2024-03-25T10:05:39;10.90;;;3.15;;
19891;SDS011;10108;50.142;8.724;2024-03-25T10:08:08;7.25;;;2.75;;
19891;SDS011;10108;50.142;8.724;2024-03-25T10:10:35;9.45;;;3.05;;
19891;SDS011;10108;50.142;8.724;2024-03-25T10:13:04;10.13;;;3.30;;
19891;SDS011;10108;50.142;8.724;2024-03-25T10:15:32;9.15;;;3.45;;
19891;SDS011;10108;50.142;8.724;2024-03-25T10:18:01;7.82;;;3.05;;
19891;SDS011;10108;50.142;8.724;2024-03-25T10:20:27;12.20;;;3.40;;
19891;SDS011;10108;50.142;8.724;2024-03-25T10:22:53;13.52;;;3.75;;
19891;SDS011;10108;50.142;8.724;2024-03-25T10:25:23;8.20;;;3.20;;
19891;SDS011;10108;50.142;8.724;2024-03-25T10:27:55;11.73;;;3.85;;
19891;SDS011;10108;50.142;8.724;2024-03-25T10:30:22;9.07;;;3.28;;
19891;SDS011;10108;50.142;8.724;2024-03-25T10:32:58;11.18;;;4.07;;
19891;SDS011;10108;50.142;8.724;2024-03-25T10:35:26;13.05;;;3.25;;
19891;SDS011;10108;50.142;8.724;2024-03-25T10:38:00;10.20;;;3.42;;
19891;SDS011;10108;50.142;8.724;2024-03-25T10:40:37;9.73;;;3.13;;
19891;SDS011;10108;50.142;8.724;2024-03-25T10:43:04;7.05;;;2.75;;
19891;SDS011;10108;50.142;8.724;2024-03-25T10:45:35;7.82;;;3.00;;
19891;SDS011;10108;50.142;8.724;2024-03-25T10:48:08;11.25;;;3.20;;
19891;SDS011;10108;50.142;8.724;2024-03-25T10:50:40;9.90;;;3.10;;
19891;SDS011;10108;50.142;8.724;2024-03-25T10:53:10;11.10;;;3.33;;
19891;SDS011;10108;50.142;8.724;2024-03-25T10:55:37;11.50;;;3.22;;
19891;SDS011;10108;50.142;8.724;2024-03-25T10:58:03;11.73;;;3.40;;
19891;SDS011;10108;50.142;8.724;2024-03-25T11:00:35;10.85;;;3.38;;
19891;SDS011;10108;50.142;8.724;2024-03-25T11:03:03;11.85;;;3.85;;
19891;SDS011;10108;50.142;8.724;2024-03-25T11:06:00;10.88;;;3.30;;
19891;SDS011;10108;50.142;8.724;2024-03-25T11:08:30;13.70;;;3.70;;
19891;SDS011;10108;50.142;8.724;2024-03-25T11:11:31;10.23;;;3.30;;
19891;SDS011;10108;50.142;8.724;2024-03-25T11:14:33;11.00;;;3.20;;
19891;SDS011;10108;50.142;8.724;2024-03-25T11:17:13;12.15;;;3.22;;
19891;SDS011;10108;50.142;8.724;2024-03-25T11:23:12;7.70;;;3.08;;
19891;SDS011;10108;50.142;8.724;2024-03-25T11:25:39;10.70;;;3.47;;
19891;SDS011;10108;50.142;8.724;2024-03-25T11:28:28;9.35;;;3.22;;
19891;SDS011;10108;50.142;8.724;2024-03-25T11:31:02;13.90;;;3.47;;
19891;SDS011;10108;50.142;8.724;2024-03-25T11:33:43;11.77;;;3.58;;
19891;SDS011;10108;50.142;8.724;2024-03-25T11:36:23;11.23;;;4.03;;
19891;SDS011;10108;50.142;8.724;2024-03-25T11:38:58;11.88;;;3.40;;
19891;SDS011;10108;50.142;8.724;2024-03-25T11:41:45;9.57;;;3.47;;
19891;SDS011;10108;50.142;8.724;2024-03-25T11:44:20;10.48;;;3.55;;
19891;SDS011;10108;50.142;8.724;2024-03-25T11:46:49;10.70;;;3.15;;
19891;SDS011;10108;50.142;8.724;2024-03-25T11:49:23;10.40;;;3.20;;
19891;SDS011;10108;50.142;8.724;2024-03-25T11:51:53;10.35;;;3.55;;
19891;SDS011;10108;50.142;8.724;2024-03-25T11:54:23;13.10;;;3.58;;
19891;SDS011;10108;50.142;8.724;2024-03-25T11:57:06;10.98;;;3.42;;
19891;SDS011;10108;50.142;8.724;2024-03-25T11:59:34;10.05;;;2.80;;
19891;SDS011;10108;50.142;8.724;2024-03-25T12:02:00;9.60;;;3.03;;
19891;SDS011;10108;50.142;8.724;2024-03-25T12:04:29;9.25;;;3.30;;
19891;SDS011;10108;50.142;8.724;2024-03-25T12:07:00;7.78;;;3.20;;
19891;SDS011;10108;50.142;8.724;2024-03-25T12:09:44;9.13;;;2.92;;
19891;SDS011;10108;50.142;8.724;2024-03-25T12:12:30;10.65;;;3.30;;
19891;SDS011;10108;50.142;8.724;2024-03-25T12:15:06;11.13;;;3.30;;
19891;SDS011;10108;50.142;8.724;2024-03-25T12:17:33;12.48;;;3.40;;
19891;SDS011;10108;50.142;8.724;2024-03-25T12:20:03;11.43;;;3.22;;
19891;SDS011;10108;50.142;8.724;2024-03-25T12:22:34;12.05;;;3.00;;
19891;SDS011;10108;50.142;8.724;2024-03-25T12:25:04;12.48;;;3.47;;
19891;SDS011;10108;50.142;8.724;2024-03-25T12:27:38;9.48;;;3.47;;
19891;SDS011;10108;50.142;8.724;2024-03-25T12:30:14;8.18;;;2.72;;
19891;SDS011;10108;50.142;8.724;2024-03-25T12:32:41;9.60;;;3.25;;
19891;SDS011;10108;50.142;8.724;2024-03-25T12:35:09;10.35;;;3.38;;
19891;SDS011;10108;50.142;8.724;2024-03-25T12:37:43;9.60;;;2.70;;
19891;SDS011;10108;50.142;8.724;2024-03-25T12:40:24;11.85;;;3.15;;
19891;SDS011;10108;50.142;8.724;2024-03-25T12:43:07;9.07;;;3.60;;
19891;SDS011;10108;50.142;8.724;2024-03-25T12:45:36;9.02;;;3.47;;
19891;SDS011;10108;50.142;8.724;2024-03-25T12:48:07;9.45;;;3.50;;
19891;SDS011;10108;50.142;8.724;2024-03-25T12:50:34;12.15;;;3.58;;
19891;SDS011;10108;50.142;8.724;2024-03-25T12:53:02;10.43;;;3.40;;
19891;SDS011;10108;50.142;8.724;2024-03-25T12:55:31;9.57;;;3.17;;
19891;SDS011;10108;50.142;8.724;2024-03-25T12:57:58;9.02;;;3.30;;
19891;SDS011;10108;50.142;8.724;2024-03-25T13:00:26;9.43;;;3.15;;
19891;SDS011;10108;50.142;8.724;2024-03-25T13:02:52;9.15;;;3.60;;
19891;SDS011;10108;50.142;8.724;2024-03-25T13:05:21;8.63;;;2.72;;
19891;SDS011;10108;50.142;8.724;2024-03-25T13:07:47;9.38;;;3.20;;
19891;SDS011;10108;50.142;8.724;2024-03-25T13:10:14;8.45;;;3.10;;
19891;SDS011;10108;50.142;8.724;2024-03-25T13:12:40;10.65;;;3.00;;
19891;SDS011;10108;50.142;8.724;2024-03-25T13:15:06;14.75;;;3.20;;
19891;SDS011;10108;50.142;8.724;2024-03-25T13:17:34;10.77;;;2.90;;
19891;SDS011;10108;50.142;8.724;2024-03-25T13:20:00;11.07;;;3.05;;
19891;SDS011;10108;50.142;8.724;2024-03-25T13:22:26;6.82;;;2.80;;
19891;SDS011;10108;50.142;8.724;2024-03-25T13:24:52;7.68;;;3.30;;
19891;SDS011;10108;50.142;8.724;2024-03-25T13:27:19;8.98;;;2.90;;
19891;SDS011;10108;50.142;8.724;2024-03-25T13:29:45;9.32;;;3.10;;
19891;SDS011;10108;50.142;8.724;2024-03-25T13:32:11;8.70;;;3.28;;
19891;SDS011;10108;50.142;8.724;2024-03-25T13:34:38;14.05;;;3.17;;
19891;SDS011;10108;50.142;8.724;2024-03-25T13:37:04;7.32;;;3.15;;
19891;SDS011;10108;50.142;8.724;2024-03-25T13:39:30;11.70;;;3.35;;
19891;SDS011;10108;50.142;8.724;2024-03-25T13:41:57;12.13;;;3.47;;
19891;SDS011;10108;50.142;8.724;2024-03-25T13:44:24;11.23;;;3.78;;
19891;SDS011;10108;50.142;8.724;2024-03-25T13:46:50;11.80;;;3.22;;
19891;SDS011;10108;50.142;8.724;2024-03-25T13:49:17;9.68;;;3.00;;
19891;SDS011;10108;50.142;8.724;2024-03-25T13:51:46;8.95;;;3.00;;
19891;SDS011;10108;50.142;8.724;2024-03-25T13:54:12;7.97;;;2.80;;
19891;SDS011;10108;50.142;8.724;2024-03-25T13:56:38;9.05;;;2.85;;
19891;SDS011;10108;50.142;8.724;2024-03-25T13:59:07;8.85;;;2.97;;
19891;SDS011;10108;50.142;8.724;2024-03-25T14:01:38;12.77;;;3.28;;
19891;SDS011;10108;50.142;8.724;2024-03-25T14:04:08;9.27;;;3.08;;
19891;SDS011;10108;50.142;8.724;2024-03-25T14:06:38;11.07;;;2.95;;
19891;SDS011;10108;50.142;8.724;2024-03-25T14:09:08;9.13;;;3.10;;
19891;SDS011;10108;50.142;8.724;2024-03-25T14:11:51;12.60;;;3.00;;
19891;SDS011;10108;50.142;8.724;2024-03-25T14:14:26;9.60;;;3.40;;
19891;SDS011;10108;50.142;8.724;2024-03-25T14:16:54;9.57;;;3.45;;
19891;SDS011;10108;50.142;8.724;2024-03-25T14:19:21;9.98;;;2.92;;
19891;SDS011;10108;50.142;8.724;2024-03-25T14:21:50;11.05;;;3.20;;
19891;SDS011;10108;50.142;8.724;2024-03-25T14:24:17;8.40;;;3.15;;
19891;SDS011;10108;50.142;8.724;2024-03-25T14:26:45;7.47;;;2.85;;
19891;SDS011;10108;50.142;8.724;2024-03-25T14:29:14;11.00;;;2.97;;
19891;SDS011;10108;50.142;8.724;2024-03-25T14:31:48;10.20;;;3.17;;
19891;SDS011;10108;50.142;8.724;2024-03-25T14:34:17;9.35;;;2.70;;
19891;SDS011;10108;50.142;8.724;2024-03-25T14:36:56;8.40;;;2.60;;
19891;SDS011;10108;50.142;8.724;2024-03-25T14:39:40;11.48;;;3.33;;
19891;SDS011;10108;50.142;8.724;2024-03-25T14:42:09;12.85;;;3.33;;
19891;SDS011;10108;50.142;8.724;2024-03-25T14:44:43;8.40;;;3.30;;
19891;SDS011;10108;50.142;8.724;2024-03-25T14:47:13;8.88;;;2.78;;
19891;SDS011;10108;50.142;8.724;2024-03-25T14:49:39;8.20;;;3.00;;
19891;SDS011;10108;50.142;8.724;2024-03-25T14:52:14;11.80;;;3.50;;